Time;durP1;ratioP1;P1;durP2;ratioP2;P2;SDS_P1;SDS_P2;PMS_P1;PMS_P2;Temp;Humidity;BMP_temperature;BMP_pressure;BME280_temperature;BME280_humidity;BME280_pressure;Samples;Min_cycle;Max_cycle;Signal;HPM_P1;HPM_P2
2023/12/30 00:01:49;;;;;;;549.10;526.70;;;8.60;99.90;;;;;;4972216;28;20457;-75
2023/12/30 00:04:16;;;;;;;519.57;498.97;;;8.60;99.90;;;;;;4972344;28;20538;-75
2023/12/30 00:06:43;;;;;;;507.03;486.53;;;8.60;99.90;;;;;;4972184;28;20526;-75
2023/12/30 00:09:10;;;;;;;474.60;456.50;;;8.60;99.90;;;;;;4972196;28;20961;-75
2023/12/30 00:11:37;;;;;;;422.67;406.87;;;8.70;99.90;;;;;;4972534;28;20554;-75
2023/12/30 00:14:06;;;;;;;381.73;367.63;;;8.70;99.90;;;;;;4972530;28;20482;-76
2023/12/30 00:16:33;;;;;;;357.87;345.17;;;8.80;99.90;;;;;;4971947;28;20451;-75
2023/12/30 00:19:00;;;;;;;323.60;312.50;;;8.90;99.90;;;;;;4971985;28;20475;-75
2023/12/30 00:21:27;;;;;;;310.67;299.37;;;8.90;99.90;;;;;;4972314;28;20517;-75
2023/12/30 00:23:53;;;;;;;296.83;286.20;;;9.00;99.90;;;;;;4972486;28;20951;-75
2023/12/30 00:26:21;;;;;;;246.97;238.17;;;9.10;99.90;;;;;;4972238;28;20831;-75
2023/12/30 00:28:48;;;;;;;227.57;218.93;;;9.20;99.90;;;;;;4972061;28;20802;-75
2023/12/30 00:31:23;;;;;;;213.60;206.50;;;9.20;99.90;;;;;;4972223;28;20541;-75
2023/12/30 00:33:51;;;;;;;213.17;204.57;;;9.10;99.90;;;;;;4972001;28;20537;-75
2023/12/30 00:36:18;;;;;;;187.60;180.53;;;9.00;99.90;;;;;;4972045;28;20551;-76
2023/12/30 00:38:45;;;;;;;201.03;193.00;;;9.00;99.90;;;;;;4972039;28;20545;-76
2023/12/30 00:41:13;;;;;;;183.40;176.30;;;9.10;99.90;;;;;;4972209;28;20461;-75
2023/12/30 00:43:41;;;;;;;175.10;168.53;;;9.20;99.90;;;;;;4972294;28;20495;-75
2023/12/30 00:46:08;;;;;;;174.97;168.17;;;9.20;99.90;;;;;;4971665;28;20540;-75
2023/12/30 00:48:36;;;;;;;161.63;155.10;;;9.10;99.90;;;;;;4972471;28;20457;-75
2023/12/30 00:51:03;;;;;;;176.13;169.20;;;9.20;99.90;;;;;;4972351;28;20482;-75
2023/12/30 00:53:31;;;;;;;167.13;159.97;;;9.20;99.90;;;;;;4972139;28;20550;-75
2023/12/30 00:55:58;;;;;;;178.80;172.20;;;9.20;99.90;;;;;;4971905;28;20538;-76
2023/12/30 00:58:25;;;;;;;161.83;155.03;;;9.20;99.90;;;;;;4971910;28;20462;-75
2023/12/30 01:00:53;;;;;;;150.60;144.80;;;9.20;99.90;;;;;;4971807;28;20450;-76
2023/12/30 01:03:20;;;;;;;163.37;156.67;;;9.20;99.90;;;;;;4972087;28;20960;-75
2023/12/30 01:05:48;;;;;;;151.67;144.83;;;9.30;99.90;;;;;;4971973;28;20798;-75
2023/12/30 01:08:15;;;;;;;120.13;115.23;;;9.30;99.90;;;;;;4971811;28;20546;-76
2023/12/30 01:10:42;;;;;;;114.23;109.23;;;9.20;99.90;;;;;;4972385;28;20506;-76
2023/12/30 01:13:09;;;;;;;102.50;98.47;;;9.20;99.90;;;;;;4972059;28;20541;-76
2023/12/30 01:15:36;;;;;;;118.40;113.70;;;9.10;99.90;;;;;;4974759;28;20546;-76
2023/12/30 01:18:04;;;;;;;83.93;79.87;;;9.20;99.90;;;;;;4975375;28;20450;-75
2023/12/30 01:20:31;;;;;;;86.17;82.13;;;9.20;99.90;;;;;;4975347;28;20486;-75
2023/12/30 01:22:59;;;;;;;70.43;66.63;;;9.10;99.90;;;;;;4975269;28;20891;-75
2023/12/30 01:25:26;;;;;;;86.17;82.57;;;9.20;99.90;;;;;;4974836;28;20460;-75
2023/12/30 01:27:53;;;;;;;91.90;87.87;;;9.10;99.90;;;;;;4974862;28;20892;-75
2023/12/30 01:30:20;;;;;;;88.40;84.67;;;9.00;99.90;;;;;;4975321;28;20948;-76
2023/12/30 01:32:47;;;;;;;88.90;84.13;;;9.00;99.90;;;;;;4975547;28;20501;-75
2023/12/30 01:35:14;;;;;;;86.30;81.03;;;9.00;99.90;;;;;;4974944;28;20537;-75
2023/12/30 01:37:41;;;;;;;88.73;84.03;;;9.10;99.90;;;;;;4975014;28;20460;-76
2023/12/30 01:40:11;;;;;;;87.67;83.67;;;9.00;99.90;;;;;;4975059;28;20479;-75
2023/12/30 01:42:41;;;;;;;91.57;87.70;;;8.90;99.90;;;;;;4974996;28;20457;-76
2023/12/30 01:45:08;;;;;;;76.17;72.70;;;8.90;99.90;;;;;;4974847;28;20473;-75
2023/12/30 01:47:36;;;;;;;73.97;71.00;;;8.90;99.90;;;;;;4974933;28;20455;-75
2023/12/30 01:50:04;;;;;;;80.90;76.23;;;9.00;99.90;;;;;;4974873;28;20451;-76
2023/12/30 01:52:32;;;;;;;88.60;84.57;;;8.90;99.90;;;;;;4974935;28;20538;-75
2023/12/30 01:54:59;;;;;;;71.70;68.03;;;8.90;99.90;;;;;;4974395;28;20562;-76
2023/12/30 01:57:27;;;;;;;84.87;80.80;;;8.90;99.90;;;;;;4974906;28;20463;-75
2023/12/30 01:59:54;;;;;;;92.17;87.90;;;8.90;99.90;;;;;;4974483;28;20570;-75
2023/12/30 02:02:22;;;;;;;104.10;99.53;;;8.80;99.90;;;;;;4974802;28;20480;-76
2023/12/30 02:04:52;;;;;;;99.47;95.10;;;8.70;99.90;;;;;;4974521;28;20470;-75
2023/12/30 02:07:19;;;;;;;97.23;92.63;;;8.70;99.90;;;;;;4974491;28;21033;-76
2023/12/30 02:09:46;;;;;;;104.03;99.70;;;8.80;99.90;;;;;;4974262;28;20935;-75
2023/12/30 02:12:13;;;;;;;110.93;106.73;;;8.80;99.90;;;;;;4974780;28;20453;-75
2023/12/30 02:14:41;;;;;;;115.63;111.03;;;8.60;99.90;;;;;;4974036;28;20487;-75
2023/12/30 02:17:08;;;;;;;111.33;106.23;;;8.70;99.90;;;;;;4974501;28;20866;-76
2023/12/30 02:19:35;;;;;;;115.83;111.13;;;8.70;99.90;;;;;;4974195;28;20485;-75
2023/12/30 02:22:02;;;;;;;111.87;106.80;;;8.80;99.90;;;;;;4974123;28;20829;-76
2023/12/30 02:24:30;;;;;;;112.30;107.23;;;8.80;99.90;;;;;;4974305;28;20461;-76
2023/12/30 02:26:57;;;;;;;116.00;110.90;;;8.80;99.90;;;;;;4974372;28;20804;-76
2023/12/30 02:29:24;;;;;;;123.53;118.60;;;8.80;99.90;;;;;;4974168;28;20447;-75
2023/12/30 02:31:51;;;;;;;132.57;126.23;;;8.80;99.90;;;;;;4974109;28;20451;-76
2023/12/30 02:34:19;;;;;;;134.20;128.97;;;8.80;99.90;;;;;;4973830;28;20457;-76
2023/12/30 02:36:47;;;;;;;148.70;143.00;;;9.00;99.90;;;;;;4974312;28;20534;-75
2023/12/30 02:39:15;;;;;;;182.00;175.03;;;9.00;99.90;;;;;;4973951;28;20817;-76
2023/12/30 02:41:43;;;;;;;183.33;176.20;;;8.90;99.90;;;;;;4974345;28;20510;-76
2023/12/30 02:44:10;;;;;;;197.97;191.37;;;8.90;99.90;;;;;;4973932;28;20533;-76
2023/12/30 02:46:40;;;;;;;192.63;185.10;;;8.90;99.90;;;;;;4974004;28;20455;-76
2023/12/30 02:49:06;;;;;;;190.60;183.00;;;8.90;99.90;;;;;;4973580;28;20534;-76
2023/12/30 02:51:33;;;;;;;203.27;196.00;;;8.80;99.90;;;;;;4973908;28;20542;-76
2023/12/30 02:54:00;;;;;;;210.90;202.30;;;8.80;99.90;;;;;;4973864;28;20460;-76
2023/12/30 02:56:28;;;;;;;201.10;193.57;;;8.80;99.90;;;;;;4973521;28;20453;-76
2023/12/30 02:58:58;;;;;;;184.83;177.43;;;8.70;99.90;;;;;;4973233;28;20458;-76
2023/12/30 03:01:27;;;;;;;143.60;137.97;;;8.70;99.90;;;;;;4973605;28;21007;-76
2023/12/30 03:03:55;;;;;;;143.43;137.03;;;8.70;99.90;;;;;;4973367;28;20554;-75
2023/12/30 03:06:22;;;;;;;126.30;121.10;;;8.60;99.90;;;;;;4973167;28;21009;-77
2023/12/30 03:08:49;;;;;;;127.20;122.13;;;8.80;99.90;;;;;;4973331;28;20454;-75
2023/12/30 03:11:16;;;;;;;138.87;133.37;;;8.60;99.90;;;;;;4973476;28;20462;-76
2023/12/30 03:13:43;;;;;;;150.87;145.37;;;8.60;99.90;;;;;;4973207;28;20543;-76
2023/12/30 03:16:14;;;;;;;154.23;148.17;;;8.50;99.90;;;;;;4972965;28;20900;-76
2023/12/30 03:18:41;;;;;;;174.57;167.83;;;8.60;99.90;;;;;;4973513;28;20472;-76
2023/12/30 03:21:09;;;;;;;196.43;189.27;;;8.50;99.90;;;;;;4973141;28;20484;-76
2023/12/30 03:23:36;;;;;;;224.47;216.43;;;8.40;99.90;;;;;;4973313;28;20495;-76
2023/12/30 03:26:04;;;;;;;243.07;234.37;;;8.40;99.90;;;;;;4972877;28;20554;-75
2023/12/30 03:28:31;;;;;;;239.40;230.90;;;8.30;99.90;;;;;;4972789;28;20450;-76
2023/12/30 03:30:58;;;;;;;278.90;268.57;;;8.30;99.90;;;;;;4972888;28;20463;-76
2023/12/30 03:33:26;;;;;;;274.50;264.33;;;8.40;99.90;;;;;;4973162;28;20541;-76
2023/12/30 03:35:54;;;;;;;269.63;260.43;;;8.40;99.90;;;;;;4972640;28;20454;-75
2023/12/30 03:38:21;;;;;;;254.07;245.33;;;8.50;99.90;;;;;;4972374;28;20455;-76
2023/12/30 03:40:48;;;;;;;252.73;243.57;;;8.50;99.90;;;;;;4973244;28;20490;-76
2023/12/30 03:43:15;;;;;;;255.90;246.00;;;8.50;99.90;;;;;;4972771;28;20900;-76
2023/12/30 03:45:42;;;;;;;267.80;258.30;;;8.40;99.90;;;;;;4972485;28;20879;-76
2023/12/30 03:48:09;;;;;;;270.13;260.20;;;8.30;99.90;;;;;;4972785;28;20455;-76
2023/12/30 03:50:37;;;;;;;262.47;252.67;;;8.30;99.90;;;;;;4972928;28;20451;-76
2023/12/30 03:53:05;;;;;;;266.83;256.53;;;8.40;99.90;;;;;;4972796;28;20516;-75
2023/12/30 03:55:32;;;;;;;250.23;241.10;;;8.40;99.90;;;;;;4972440;28;20818;-76
2023/12/30 03:57:58;;;;;;;266.53;256.50;;;8.50;99.90;;;;;;4971048;28;20462;-76
2023/12/30 04:00:25;;;;;;;267.50;257.67;;;8.60;99.90;;;;;;4972485;28;21020;-76
2023/12/30 04:02:54;;;;;;;260.97;251.20;;;8.60;99.90;;;;;;4972301;28;20958;-76
2023/12/30 04:05:22;;;;;;;268.43;259.27;;;8.50;99.90;;;;;;4972386;28;20831;-76
2023/12/30 04:07:51;;;;;;;277.47;267.47;;;8.50;99.90;;;;;;4972484;28;20471;-76
2023/12/30 04:10:18;;;;;;;276.40;266.37;;;8.40;99.90;;;;;;4972320;28;20458;-76
2023/12/30 04:12:45;;;;;;;305.73;294.80;;;8.40;99.90;;;;;;4972633;28;20455;-76
2023/12/30 04:15:12;;;;;;;303.90;292.53;;;8.40;99.90;;;;;;4972351;28;20541;-76
2023/12/30 04:17:39;;;;;;;311.63;300.23;;;8.40;99.90;;;;;;4972456;28;20938;-76
2023/12/30 04:20:07;;;;;;;354.73;342.33;;;8.20;99.90;;;;;;4972263;28;20478;-76
2023/12/30 04:22:34;;;;;;;356.70;342.80;;;8.20;99.90;;;;;;4972472;28;20457;-76
2023/12/30 04:25:03;;;;;;;380.53;365.43;;;8.30;99.90;;;;;;4971953;28;20844;-76
2023/12/30 04:27:30;;;;;;;380.47;366.27;;;8.30;99.90;;;;;;4972259;28;20455;-76
2023/12/30 04:29:57;;;;;;;382.47;368.17;;;8.40;99.90;;;;;;4972223;28;20931;-76
2023/12/30 04:32:24;;;;;;;409.20;394.03;;;8.30;99.90;;;;;;4972417;28;20455;-76
2023/12/30 04:34:51;;;;;;;401.47;386.67;;;8.40;99.90;;;;;;4972086;28;20837;-76
2023/12/30 04:37:20;;;;;;;413.90;397.73;;;8.40;99.90;;;;;;4972262;28;20458;-75
2023/12/30 04:39:46;;;;;;;417.97;402.27;;;8.40;99.90;;;;;;4971807;28;20569;-76
2023/12/30 04:42:15;;;;;;;410.53;394.83;;;8.20;99.90;;;;;;4972494;28;20451;-75
2023/12/30 04:44:42;;;;;;;415.97;399.07;;;8.20;99.90;;;;;;4972180;28;20454;-76
2023/12/30 04:47:09;;;;;;;409.10;393.23;;;8.20;99.90;;;;;;4972354;28;20545;-76
2023/12/30 04:49:36;;;;;;;399.63;384.87;;;8.10;99.90;;;;;;4973611;28;20524;-76
2023/12/30 04:52:03;;;;;;;374.30;360.73;;;8.10;99.90;;;;;;4975691;28;20545;-75
2023/12/30 04:54:31;;;;;;;369.53;355.60;;;8.20;99.90;;;;;;4975734;28;20545;-75
2023/12/30 04:56:58;;;;;;;371.60;357.33;;;8.20;99.90;;;;;;4975840;28;20465;-76
2023/12/30 04:59:27;;;;;;;362.93;347.97;;;8.10;99.90;;;;;;4975724;28;20462;-76
2023/12/30 05:01:54;;;;;;;366.20;352.13;;;8.10;99.90;;;;;;4975681;28;20458;-76
2023/12/30 05:04:21;;;;;;;363.77;350.30;;;8.00;99.90;;;;;;4975769;28;20457;-76
2023/12/30 05:06:48;;;;;;;415.73;400.23;;;8.00;99.90;;;;;;4975419;28;20538;-76
2023/12/30 05:09:15;;;;;;;411.63;395.73;;;8.00;99.90;;;;;;4975502;28;20460;-76
2023/12/30 05:11:45;;;;;;;414.17;398.23;;;8.10;99.90;;;;;;4975491;28;20819;-76
2023/12/30 05:14:12;;;;;;;375.83;360.90;;;8.20;99.90;;;;;;4975444;28;20954;-76
2023/12/30 05:16:49;;;;;;;376.77;362.47;;;8.30;99.90;;;;;;4975324;28;20513;-76
2023/12/30 05:19:16;;;;;;;371.60;356.90;;;8.20;99.90;;;;;;4975068;28;20505;-76
2023/12/30 05:21:43;;;;;;;324.53;313.13;;;8.10;99.90;;;;;;4975453;28;20490;-76
2023/12/30 05:24:10;;;;;;;307.77;297.00;;;8.20;99.90;;;;;;4975325;28;20509;-76
2023/12/30 05:26:37;;;;;;;318.53;307.30;;;8.20;99.90;;;;;;4974970;28;21022;-76
2023/12/30 05:29:04;;;;;;;315.33;303.50;;;8.20;99.90;;;;;;4974841;28;20547;-76
2023/12/30 05:31:31;;;;;;;332.00;319.70;;;8.10;99.90;;;;;;4975478;28;20537;-76
2023/12/30 05:33:59;;;;;;;340.17;327.47;;;8.00;99.90;;;;;;4974978;28;20539;-76
2023/12/30 05:36:26;;;;;;;341.60;328.90;;;8.00;99.90;;;;;;4974997;28;20459;-76
2023/12/30 05:38:53;;;;;;;358.10;344.23;;;8.00;99.90;;;;;;4975147;28;20450;-76
2023/12/30 05:41:20;;;;;;;375.73;361.50;;;7.90;99.90;;;;;;4975052;28;20481;-76
2023/12/30 05:43:47;;;;;;;392.43;376.93;;;7.90;99.90;;;;;;4975370;28;20494;-76
2023/12/30 05:46:17;;;;;;;387.27;372.57;;;7.90;99.90;;;;;;4974497;28;20454;-76
2023/12/30 05:48:44;;;;;;;401.27;386.27;;;7.90;99.90;;;;;;4974653;28;20451;-76
2023/12/30 05:51:12;;;;;;;436.13;418.80;;;7.90;99.90;;;;;;4974797;28;20460;-76
2023/12/30 05:53:41;;;;;;;422.37;406.17;;;7.80;99.90;;;;;;4974745;28;20465;-76
2023/12/30 05:56:08;;;;;;;442.53;424.37;;;7.80;99.90;;;;;;4974377;28;20465;-76
2023/12/30 05:58:37;;;;;;;439.10;421.57;;;7.80;99.90;;;;;;4974403;28;20461;-76
2023/12/30 06:01:04;;;;;;;468.83;450.37;;;7.80;99.90;;;;;;4973949;28;20483;-76
2023/12/30 06:03:31;;;;;;;482.90;463.00;;;7.80;99.90;;;;;;4974757;28;20490;-76
2023/12/30 06:05:58;;;;;;;475.70;454.17;;;7.90;99.90;;;;;;4974274;28;20473;-76
2023/12/30 06:08:26;;;;;;;470.67;450.70;;;7.90;99.90;;;;;;4974262;28;20819;-76
2023/12/30 06:10:53;;;;;;;455.43;436.07;;;8.00;99.90;;;;;;4974565;28;20561;-76
2023/12/30 06:13:21;;;;;;;444.77;426.50;;;8.00;99.90;;;;;;4974200;28;20731;-76
2023/12/30 06:15:51;;;;;;;432.87;415.63;;;8.00;99.90;;;;;;4973998;28;20458;-76
2023/12/30 06:18:18;;;;;;;414.53;397.63;;;8.00;99.90;;;;;;4974029;28;20546;-76
2023/12/30 06:20:46;;;;;;;396.40;380.30;;;8.00;99.90;;;;;;4974278;28;20482;-76
2023/12/30 06:23:13;;;;;;;419.80;403.60;;;7.90;99.90;;;;;;4973832;28;20458;-76
2023/12/30 06:25:42;;;;;;;440.53;422.63;;;7.80;99.90;;;;;;4973187;28;20534;-76
2023/12/30 06:28:09;;;;;;;456.13;437.97;;;7.80;99.90;;;;;;4973540;28;20457;-76
2023/12/30 06:30:36;;;;;;;474.50;455.23;;;7.80;99.90;;;;;;4973981;28;20451;-76
2023/12/30 06:33:06;;;;;;;499.67;477.97;;;7.90;99.90;;;;;;4973527;28;20454;-76
2023/12/30 06:35:34;;;;;;;492.90;471.40;;;7.90;99.90;;;;;;4972942;28;20454;-76
2023/12/30 06:38:02;;;;;;;500.80;477.67;;;8.00;99.90;;;;;;4972836;28;20455;-76
2023/12/30 06:40:29;;;;;;;490.37;469.50;;;8.10;99.90;;;;;;4973677;28;20580;-76
2023/12/30 06:42:57;;;;;;;469.70;450.13;;;8.10;99.90;;;;;;4973749;28;20527;-76
2023/12/30 06:45:24;;;;;;;470.70;450.37;;;8.20;99.90;;;;;;4973665;28;20719;-76
2023/12/30 06:47:50;;;;;;;456.77;437.27;;;8.30;99.90;;;;;;4973630;28;20545;-76
2023/12/30 06:50:19;;;;;;;410.07;393.57;;;8.30;99.90;;;;;;4973702;28;20824;-76
2023/12/30 06:52:46;;;;;;;357.83;343.17;;;8.30;99.90;;;;;;4973342;28;20942;-76
2023/12/30 06:55:14;;;;;;;349.43;336.07;;;8.40;99.90;;;;;;4973538;28;20481;-76
2023/12/30 06:57:43;;;;;;;322.00;310.30;;;8.40;99.90;;;;;;4971740;28;20467;-76
2023/12/30 07:00:12;;;;;;;337.43;324.90;;;8.40;99.90;;;;;;4972439;28;20858;-76
2023/12/30 07:02:41;;;;;;;368.23;354.13;;;8.20;99.90;;;;;;4972873;28;20525;-76
2023/12/30 07:05:08;;;;;;;393.30;378.53;;;8.10;99.90;;;;;;4971369;28;20502;-76
2023/12/30 07:07:35;;;;;;;423.20;406.53;;;8.10;99.90;;;;;;4972097;28;20482;-76
2023/12/30 07:10:03;;;;;;;467.23;448.33;;;8.00;99.90;;;;;;4972384;28;20450;-76
2023/12/30 07:12:30;;;;;;;491.33;471.13;;;7.90;99.90;;;;;;4972789;28;20457;-76
2023/12/30 07:14:57;;;;;;;526.70;504.23;;;7.80;99.90;;;;;;4972768;28;20460;-76
2023/12/30 07:17:26;;;;;;;508.17;485.57;;;7.80;99.90;;;;;;4973170;28;20545;-76
2023/12/30 07:19:53;;;;;;;524.77;501.00;;;7.80;99.90;;;;;;4972950;28;20561;-78
2023/12/30 07:22:20;;;;;;;537.30;513.17;;;7.80;99.90;;;;;;4972803;28;20482;-77
2023/12/30 07:24:47;;;;;;;491.03;468.47;;;7.70;99.90;;;;;;4972745;28;20541;-76
2023/12/30 07:27:14;;;;;;;478.07;457.47;;;7.90;99.90;;;;;;4973037;28;20457;-77
2023/12/30 07:29:41;;;;;;;462.40;442.60;;;7.90;99.90;;;;;;4973101;28;20461;-76
2023/12/30 07:32:08;;;;;;;455.47;436.83;;;7.90;99.90;;;;;;4972953;28;20551;-77
2023/12/30 07:34:36;;;;;;;432.57;414.63;;;7.90;99.90;;;;;;4972500;28;20892;-77
2023/12/30 07:37:04;;;;;;;418.97;401.87;;;8.00;99.90;;;;;;4972577;28;20483;-76
2023/12/30 07:39:32;;;;;;;417.80;400.93;;;8.00;99.90;;;;;;4972674;28;20824;-76
2023/12/30 07:41:59;;;;;;;412.43;396.10;;;8.00;99.90;;;;;;4972675;28;20482;-76
2023/12/30 07:44:28;;;;;;;402.17;386.77;;;8.00;99.90;;;;;;4972549;28;20450;-76
2023/12/30 07:46:55;;;;;;;401.00;385.47;;;8.00;99.90;;;;;;4972596;28;20459;-77
2023/12/30 07:49:22;;;;;;;395.93;380.40;;;8.20;99.90;;;;;;4972232;28;20505;-76
2023/12/30 07:51:53;;;;;;;386.73;371.50;;;8.20;99.90;;;;;;4972848;28;20457;-76
2023/12/30 07:54:20;;;;;;;373.10;357.90;;;8.20;99.90;;;;;;4972643;28;20489;-76
2023/12/30 07:56:47;;;;;;;365.33;351.30;;;8.20;99.90;;;;;;4972159;28;21066;-76
2023/12/30 07:59:13;;;;;;;374.63;360.73;;;8.20;99.90;;;;;;4972464;28;20459;-77
2023/12/30 08:01:44;;;;;;;372.10;358.30;;;8.10;99.90;;;;;;4971956;28;20561;-77
2023/12/30 08:04:11;;;;;;;377.93;362.00;;;8.20;99.90;;;;;;4971585;28;20454;-76
2023/12/30 08:06:40;;;;;;;374.97;360.67;;;8.10;99.90;;;;;;4972168;28;20451;-77
2023/12/30 08:09:09;;;;;;;390.17;374.27;;;8.10;99.90;;;;;;4971175;28;20542;-77
2023/12/30 08:11:36;;;;;;;403.80;388.20;;;8.00;99.90;;;;;;4969457;28;20541;-76
2023/12/30 08:14:03;;;;;;;429.00;410.93;;;8.10;99.90;;;;;;4971539;28;20537;-76
2023/12/30 08:16:30;;;;;;;428.30;411.00;;;8.10;99.90;;;;;;4970977;28;20455;-76
2023/12/30 08:18:57;;;;;;;434.10;415.90;;;8.10;99.90;;;;;;4971215;28;20473;-76
2023/12/30 08:21:24;;;;;;;432.93;415.37;;;8.10;99.90;;;;;;4971569;28;20475;-77
2023/12/30 08:23:50;;;;;;;427.37;409.07;;;8.20;99.90;;;;;;4973974;28;20537;-77
2023/12/30 08:26:19;;;;;;;425.33;407.50;;;8.20;99.90;;;;;;4975275;28;20546;-76
2023/12/30 08:28:46;;;;;;;407.70;391.90;;;8.30;99.90;;;;;;4975137;28;20541;-76
2023/12/30 08:31:13;;;;;;;410.10;393.90;;;8.40;99.90;;;;;;4975567;28;20898;-76
2023/12/30 08:33:40;;;;;;;391.30;376.00;;;8.40;99.90;;;;;;4975749;28;20961;-76
2023/12/30 08:36:07;;;;;;;361.63;348.30;;;8.50;99.90;;;;;;4975157;28;20576;-76
2023/12/30 08:38:34;;;;;;;319.80;308.33;;;8.60;99.90;;;;;;4975211;28;20950;-76
2023/12/30 08:41:02;;;;;;;294.90;283.27;;;8.60;99.90;;;;;;4975129;28;20481;-76
2023/12/30 08:43:30;;;;;;;263.90;254.37;;;8.60;99.90;;;;;;4975633;28;20457;-76
2023/12/30 08:45:57;;;;;;;225.07;217.00;;;8.70;99.90;;;;;;4974621;28;20546;-77
2023/12/30 08:48:24;;;;;;;202.90;194.67;;;8.70;99.90;;;;;;4975817;28;20899;-76
2023/12/30 08:50:52;;;;;;;194.30;187.00;;;8.70;99.90;;;;;;4975708;28;20900;-76
2023/12/30 08:53:24;;;;;;;192.43;184.43;;;8.70;99.90;;;;;;4975846;28;20458;-76
2023/12/30 08:55:52;;;;;;;165.87;159.67;;;8.70;99.90;;;;;;4974827;28;20462;-76
2023/12/30 08:58:21;;;;;;;158.10;151.27;;;8.80;99.90;;;;;;4975408;28;20454;-76
2023/12/30 09:00:49;;;;;;;138.27;132.50;;;8.80;99.90;;;;;;4975454;28;20467;-77
2023/12/30 09:03:16;;;;;;;135.27;128.97;;;8.80;99.90;;;;;;4975534;28;20545;-77
2023/12/30 09:05:43;;;;;;;108.40;103.77;;;8.90;99.90;;;;;;4974511;28;20481;-77
2023/12/30 09:08:10;;;;;;;94.73;90.03;;;8.90;99.90;;;;;;4975406;28;20455;-76
2023/12/30 09:10:39;;;;;;;84.13;80.23;;;9.00;99.90;;;;;;4974256;28;20461;-77
2023/12/30 09:13:06;;;;;;;75.07;71.33;;;9.10;99.90;;;;;;4975422;28;20486;-77
2023/12/30 09:15:33;;;;;;;58.50;55.67;;;9.10;99.90;;;;;;4974530;28;20453;-77
2023/12/30 09:18:02;;;;;;;54.83;51.63;;;9.20;99.90;;;;;;4975312;28;20485;-77
2023/12/30 09:20:29;;;;;;;45.17;42.60;;;9.20;99.90;;;;;;4975318;28;20458;-76
2023/12/30 09:22:56;;;;;;;30.30;27.70;;;9.30;99.90;;;;;;4974965;28;20509;-77
2023/12/30 09:25:24;;;;;;;22.10;19.33;;;9.30;99.90;;;;;;4974908;28;20457;-77
2023/12/30 09:27:51;;;;;;;23.10;13.90;;;9.30;99.90;;;;;;4975261;28;20545;-76
2023/12/30 09:30:18;;;;;;;17.57;15.77;;;9.40;99.90;;;;;;4974683;28;20486;-76
2023/12/30 09:32:44;;;;;;;20.47;12.90;;;9.40;99.90;;;;;;4975296;28;20901;-77
2023/12/30 09:35:13;;;;;;;16.63;10.37;;;9.40;99.50;;;;;;4973741;28;20477;-77
2023/12/30 09:37:39;;;;;;;12.63;11.03;;;9.50;99.20;;;;;;4974853;28;20461;-77
2023/12/30 09:40:08;;;;;;;20.97;15.40;;;9.50;99.00;;;;;;4975158;28;20537;-77
2023/12/30 09:42:37;;;;;;;13.57;12.20;;;9.50;99.00;;;;;;4974835;28;20482;-77
2023/12/30 09:45:06;;;;;;;21.93;11.07;;;9.50;97.90;;;;;;4974049;28;20490;-77
2023/12/30 09:47:34;;;;;;;10.47;9.40;;;9.60;97.90;;;;;;4974679;28;20458;-77
2023/12/30 09:50:00;;;;;;;18.93;8.60;;;9.60;97.90;;;;;;4974587;28;20463;-77
2023/12/30 09:52:29;;;;;;;12.67;7.37;;;9.70;97.90;;;;;;4974856;28;20534;-77
2023/12/30 09:54:56;;;;;;;11.27;6.30;;;9.70;97.90;;;;;;4974318;28;20461;-77
2023/12/30 09:57:23;;;;;;;17.77;7.10;;;9.70;97.90;;;;;;4974486;28;21015;-77
2023/12/30 09:59:52;;;;;;;12.60;7.20;;;9.70;97.90;;;;;;4974091;28;20486;-77
2023/12/30 10:02:19;;;;;;;13.23;6.57;;;9.80;98.00;;;;;;4973776;28;20475;-77
2023/12/30 10:04:46;;;;;;;20.60;6.17;;;9.90;98.00;;;;;;4973502;28;20537;-77
2023/12/30 10:07:13;;;;;;;11.53;8.03;;;9.90;98.00;;;;;;4974034;28;20459;-76
2023/12/30 10:09:42;;;;;;;13.40;5.30;;;10.00;97.60;;;;;;4973782;28;20843;-77
2023/12/30 10:12:09;;;;;;;18.63;6.50;;;10.10;97.60;;;;;;4972164;28;20450;-77
2023/12/30 10:14:36;;;;;;;15.87;5.57;;;10.20;97.60;;;;;;4973632;28;20454;-77
2023/12/30 10:17:04;;;;;;;12.63;4.90;;;10.30;97.70;;;;;;4972994;28;20498;-77
2023/12/30 10:19:31;;;;;;;12.57;4.67;;;10.30;97.70;;;;;;4973323;28;20466;-77
2023/12/30 10:21:58;;;;;;;18.97;6.27;;;10.40;96.50;;;;;;4973325;28;20483;-77
2023/12/30 10:24:28;;;;;;;12.27;4.87;;;10.50;97.80;;;;;;4973339;28;20455;-77
2023/12/30 10:27:03;;;;;;;12.70;4.70;;;10.50;96.10;;;;;;4973285;28;20459;-77
2023/12/30 10:29:30;;;;;;;17.10;6.30;;;10.50;94.50;;;;;;4973087;28;20454;-77
2023/12/30 10:32:01;;;;;;;11.73;6.40;;;10.60;94.80;;;;;;4973154;28;20457;-77
2023/12/30 10:34:29;;;;;;;17.30;6.20;;;10.70;94.60;;;;;;4973080;28;20474;-77
2023/12/30 10:36:57;;;;;;;17.20;6.03;;;10.70;94.60;;;;;;4972883;28;20457;-76
2023/12/30 10:39:24;;;;;;;15.10;4.83;;;10.70;94.60;;;;;;4973276;28;20447;-77
2023/12/30 10:41:51;;;;;;;17.57;4.60;;;10.70;95.00;;;;;;4973398;28;20518;-77
2023/12/30 10:44:19;;;;;;;7.87;3.77;;;10.70;94.60;;;;;;4972927;28;20455;-77
2023/12/30 10:46:49;;;;;;;11.40;4.53;;;10.70;94.60;;;;;;4971710;28;20936;-77
2023/12/30 10:49:17;;;;;;;15.73;4.67;;;10.70;93.10;;;;;;4972447;28;20490;-77
2023/12/30 10:51:46;;;;;;;11.30;4.60;;;10.70;93.90;;;;;;4973299;28;20447;-77
2023/12/30 10:54:19;;;;;;;20.67;4.80;;;10.70;94.20;;;;;;4973027;28;20939;-77
2023/12/30 10:56:53;;;;;;;14.93;4.30;;;10.70;94.40;;;;;;4972696;28;20863;-79
2023/12/30 10:59:23;;;;;;;11.40;3.43;;;10.60;94.60;;;;;;4973455;28;20963;-77
2023/12/30 11:01:50;;;;;;;9.60;3.97;;;10.50;93.50;;;;;;4971971;28;20475;-77
2023/12/30 11:04:18;;;;;;;10.23;3.93;;;10.50;94.50;;;;;;4971197;28;20451;-77
2023/12/30 11:06:51;;;;;;;16.97;5.30;;;10.50;94.50;;;;;;4972689;28;20542;-77
2023/12/30 11:09:19;;;;;;;14.20;4.80;;;10.50;94.50;;;;;;4972275;28;20454;-77
2023/12/30 11:11:51;;;;;;;17.80;4.47;;;10.40;92.80;;;;;;4973079;28;20529;-77
2023/12/30 11:14:18;;;;;;;13.10;4.60;;;10.50;94.40;;;;;;4973149;28;20829;-77
2023/12/30 11:16:50;;;;;;;14.37;5.67;;;10.50;94.50;;;;;;4972946;28;20451;-77
2023/12/30 11:19:27;;;;;;;8.93;4.80;;;10.60;94.60;;;;;;4972945;28;20490;-78
2023/12/30 11:21:55;;;;;;;14.20;4.80;;;10.70;94.60;;;;;;4973043;28;20471;-77
2023/12/30 11:24:23;;;;;;;10.97;4.50;;;10.70;94.60;;;;;;4972855;28;20557;-77
2023/12/30 11:26:53;;;;;;;19.30;6.70;;;10.70;94.60;;;;;;4972968;28;20542;-77
2023/12/30 11:29:24;;;;;;;7.20;3.30;;;10.80;92.40;;;;;;4972845;28;20835;-77
2023/12/30 11:31:54;;;;;;;11.50;3.80;;;10.90;91.30;;;;;;4972560;28;20450;-76
2023/12/30 11:34:22;;;;;;;12.60;3.73;;;11.00;91.40;;;;;;4972721;28;20831;-76
2023/12/30 11:36:49;;;;;;;15.53;4.07;;;11.00;91.40;;;;;;4972918;28;20450;-76
2023/12/30 11:39:25;;;;;;;8.43;2.93;;;11.10;91.40;;;;;;4972629;28;20567;-76
2023/12/30 11:41:53;;;;;;;15.73;3.60;;;11.40;91.50;;;;;;4972734;28;20462;-76
2023/12/30 11:44:20;;;;;;;13.47;3.30;;;11.80;91.80;;;;;;4972611;28;20458;-76
2023/12/30 11:46:48;;;;;;;12.23;3.40;;;11.90;90.70;;;;;;4971957;28;20533;-76
2023/12/30 11:49:21;;;;;;;11.43;2.97;;;12.10;90.40;;;;;;4972710;28;20450;-77
2023/12/30 11:51:48;;;;;;;10.77;3.50;;;12.00;86.50;;;;;;4972605;28;20462;-77
2023/12/30 11:54:15;;;;;;;7.73;2.90;;;12.00;86.60;;;;;;4972309;28;20931;-76
2023/12/30 11:56:43;;;;;;;9.13;3.30;;;11.90;86.50;;;;;;4972275;28;20451;-76
2023/12/30 11:59:10;;;;;;;14.50;3.07;;;12.00;87.30;;;;;;4971886;28;20885;-76
2023/12/30 12:01:37;;;;;;;13.53;4.20;;;12.00;86.50;;;;;;4972254;28;20466;-76
2023/12/30 12:04:04;;;;;;;14.60;3.30;;;11.90;86.40;;;;;;4971685;28;20447;-76
2023/12/30 12:06:32;;;;;;;11.80;3.20;;;12.00;86.60;;;;;;4970983;28;20486;-77
2023/12/30 12:09:04;;;;;;;11.83;3.93;;;12.00;86.50;;;;;;4970702;28;20458;-76
2023/12/30 12:11:31;;;;;;;12.03;3.37;;;12.10;86.60;;;;;;4970790;28;20457;-77
2023/12/30 12:13:58;;;;;;;11.13;3.07;;;11.90;81.90;;;;;;4971947;28;20450;-76
2023/12/30 12:16:26;;;;;;;15.50;3.50;;;11.80;82.70;;;;;;4971338;28;20923;-76
2023/12/30 12:18:54;;;;;;;10.37;2.60;;;11.80;79.00;;;;;;4972077;28;20462;-76
2023/12/30 12:21:21;;;;;;;16.37;3.70;;;12.00;78.80;;;;;;4972194;28;20451;-77
2023/12/30 12:23:49;;;;;;;10.30;3.60;;;12.00;78.80;;;;;;4972492;28;20486;-76
2023/12/30 12:26:17;;;;;;;8.73;2.70;;;12.00;78.70;;;;;;4971964;28;20454;-76